createdAt,value
2023-05-21T00:01:08.260Z,64.76
2023-05-21T00:03:36.460Z,65.05
2023-05-21T00:06:04.113Z,64.62
2023-05-21T00:08:31.142Z,64.76
2023-05-21T00:10:58.066Z,65.09
2023-05-21T00:13:25.152Z,64.68
2023-05-21T00:15:52.049Z,64.71
2023-05-21T00:18:18.741Z,64.82
2023-05-21T00:20:45.894Z,64.81
2023-05-21T00:23:12.834Z,65.18
2023-05-21T00:25:39.492Z,65.50
2023-05-21T00:28:06.553Z,65.44
2023-05-21T00:30:33.323Z,65.22
2023-05-21T00:33:02.487Z,65.22
2023-05-21T00:35:29.613Z,65.41
2023-05-21T00:37:56.429Z,65.57
2023-05-21T00:40:23.356Z,65.31
2023-05-21T00:42:50.303Z,65.39
2023-05-21T00:45:17.017Z,65.56
2023-05-21T00:47:44.989Z,65.26
2023-05-21T00:50:12.114Z,65.60
2023-05-21T00:52:42.145Z,65.74
2023-05-21T00:55:10.563Z,65.52
2023-05-21T00:57:37.709Z,65.92
2023-05-21T01:00:09.015Z,65.90
2023-05-21T01:02:37.636Z,65.86
2023-05-21T01:05:07.763Z,66.53
2023-05-21T01:07:36.496Z,66.05
2023-05-21T01:10:06.664Z,66.58
2023-05-21T01:12:34.511Z,66.42
2023-05-21T01:15:04.033Z,66.84
2023-05-21T01:17:31.873Z,67.08
2023-05-21T01:19:59.643Z,66.48
2023-05-21T01:22:29.248Z,66.78
2023-05-21T01:24:55.931Z,67.04
2023-05-21T01:27:22.985Z,66.98
2023-05-21T01:29:49.735Z,66.94
2023-05-21T01:32:26.953Z,67.07
2023-05-21T01:35:08.322Z,67.21
2023-05-21T01:37:55.304Z,67.49
2023-05-21T01:40:35.867Z,67.43
2023-05-21T01:43:03.897Z,67.45
2023-05-21T01:45:32.039Z,67.14
2023-05-21T01:47:59.449Z,67.28
2023-05-21T01:50:27.106Z,67.36
2023-05-21T01:52:57.027Z,67.54
2023-05-21T01:55:24.940Z,67.33
2023-05-21T01:57:53.548Z,67.69
2023-05-21T02:00:24.883Z,68.15
2023-05-21T02:02:52.028Z,67.93
2023-05-21T02:05:19.113Z,67.88
2023-05-21T02:07:46.282Z,68.10
2023-05-21T02:10:13.640Z,68.26
2023-05-21T02:12:40.373Z,68.01
2023-05-21T02:15:07.488Z,68.44
2023-05-21T02:17:34.264Z,68.30
2023-05-21T02:20:11.398Z,68.54
2023-05-21T02:22:46.391Z,68.44
2023-05-21T02:25:15.953Z,68.62
2023-05-21T02:27:43.465Z,68.58
2023-05-21T02:30:15.788Z,68.68
2023-05-21T02:32:43.769Z,68.93
2023-05-21T02:35:12.779Z,69.15
2023-05-21T02:37:40.562Z,68.79
2023-05-21T02:40:09.883Z,69.22
2023-05-21T02:42:39.610Z,69.22
2023-05-21T02:45:10.193Z,69.04
2023-05-21T02:47:38.200Z,69.04
2023-05-21T02:50:06.979Z,69.37
2023-05-21T02:52:34.260Z,69.33
2023-05-21T02:55:01.310Z,69.27
2023-05-21T02:57:27.942Z,69.21
2023-05-21T02:59:54.621Z,69.28
2023-05-21T03:02:21.545Z,69.76
2023-05-21T03:04:48.929Z,69.91
2023-05-21T03:07:18.058Z,69.71
2023-05-21T03:09:44.826Z,69.88
2023-05-21T03:12:11.809Z,70.33
2023-05-21T03:14:38.768Z,70.66
2023-05-21T03:17:08.404Z,70.40
2023-05-21T03:19:36.416Z,70.37
2023-05-21T03:22:06.747Z,70.65
2023-05-21T03:24:33.568Z,70.34
2023-05-21T03:27:01.504Z,70.54
2023-05-21T03:29:28.574Z,70.84
2023-05-21T03:31:55.812Z,71.03
2023-05-21T03:34:23.286Z,70.54
2023-05-21T03:36:50.199Z,70.71
2023-05-21T03:39:17.177Z,71.06
2023-05-21T03:41:43.841Z,71.11
2023-05-21T03:44:10.501Z,70.43
2023-05-21T03:46:37.299Z,70.89
2023-05-21T03:49:03.895Z,70.84
2023-05-21T03:51:31.775Z,70.75
2023-05-21T03:53:59.640Z,70.82
2023-05-21T03:56:26.446Z,71.42
2023-05-21T03:58:53.234Z,71.05
2023-05-21T04:01:20.005Z,71.42
2023-05-21T04:03:47.210Z,71.37
2023-05-21T04:06:14.209Z,71.37
2023-05-21T04:08:41.094Z,70.97
2023-05-21T04:11:07.716Z,71.32
2023-05-21T04:13:34.496Z,71.57
2023-05-21T04:16:01.342Z,71.47
2023-05-21T04:18:28.192Z,71.15
2023-05-21T04:20:54.905Z,71.04
2023-05-21T04:23:23.802Z,71.03
2023-05-21T04:25:51.049Z,70.88
2023-05-21T04:28:20.137Z,71.24
2023-05-21T04:30:47.956Z,71.26
2023-05-21T04:33:18.198Z,71.31
2023-05-21T04:35:47.402Z,71.22
2023-05-21T04:38:14.281Z,71.11
2023-05-21T04:40:41.926Z,71.33
2023-05-21T04:43:09.030Z,71.14
2023-05-21T04:45:36.067Z,70.95
2023-05-21T04:48:03.051Z,70.67
2023-05-21T04:50:33.743Z,71.35
2023-05-21T04:53:00.967Z,71.29
2023-05-21T04:55:27.633Z,70.92
2023-05-21T04:57:54.415Z,70.99
2023-05-21T05:00:21.732Z,70.43
2023-05-21T05:02:48.497Z,70.81
2023-05-21T05:05:15.297Z,70.14
2023-05-21T05:07:42.035Z,70.15
2023-05-21T05:10:08.842Z,70.36
2023-05-21T05:12:35.686Z,69.32
2023-05-21T05:15:02.399Z,69.06
2023-05-21T05:17:29.187Z,68.57
2023-05-21T05:19:56.211Z,67.91
2023-05-21T05:22:22.966Z,66.90
2023-05-21T05:24:49.588Z,66.05
2023-05-21T05:27:16.338Z,66.03
2023-05-21T05:29:43.068Z,65.60
2023-05-21T05:32:10.009Z,64.95
2023-05-21T05:34:37.740Z,65.03
2023-05-21T05:37:05.158Z,64.57
2023-05-21T05:39:31.709Z,64.33
2023-05-21T05:41:58.620Z,64.58
2023-05-21T05:44:25.525Z,64.27
2023-05-21T05:46:52.148Z,64.25
2023-05-21T05:49:18.966Z,64.24
2023-05-21T05:51:45.835Z,64.17
2023-05-21T05:54:12.482Z,63.71
2023-05-21T05:56:39.335Z,63.28
2023-05-21T05:59:06.255Z,63.39
2023-05-21T06:01:32.934Z,63.08
2023-05-21T06:03:59.712Z,61.82
2023-05-21T06:06:26.740Z,62.06
2023-05-21T06:08:53.671Z,62.13
2023-05-21T06:11:21.615Z,62.22
2023-05-21T06:13:48.396Z,62.12
2023-05-21T06:16:16.017Z,62.47
2023-05-21T06:18:42.920Z,62.41
2023-05-21T06:21:10.698Z,61.59
2023-05-21T06:23:37.852Z,61.88
2023-05-21T06:26:05.155Z,61.66
2023-05-21T06:28:32.207Z,59.69
2023-05-21T06:30:58.837Z,59.33
2023-05-21T06:33:27.465Z,59.41
2023-05-21T06:35:54.287Z,60.26
2023-05-21T06:38:21.394Z,60.28
2023-05-21T06:40:49.496Z,59.94
2023-05-21T06:43:16.195Z,60.12
2023-05-21T06:45:42.835Z,59.92
2023-05-21T06:48:09.711Z,59.63
2023-05-21T06:50:36.497Z,59.42
2023-05-21T06:53:03.282Z,60.35
2023-05-21T06:55:30.040Z,60.14
2023-05-21T06:57:58.110Z,60.42
2023-05-21T07:00:25.089Z,59.83
2023-05-21T07:02:51.931Z,60.21
2023-05-21T07:05:18.928Z,60.64
2023-05-21T07:07:45.496Z,60.44
2023-05-21T07:10:12.843Z,60.61
2023-05-21T07:12:41.587Z,60.45
2023-05-21T07:15:09.242Z,60.89
2023-05-21T07:17:35.989Z,60.88
2023-05-21T07:20:02.830Z,61.17
2023-05-21T07:22:29.459Z,61.09
2023-05-21T07:24:56.178Z,60.91
2023-05-21T07:27:25.947Z,61.09
2023-05-21T07:29:52.972Z,60.47
2023-05-21T07:32:19.714Z,60.52
2023-05-21T07:34:47.228Z,60.57
2023-05-21T07:37:14.197Z,60.16
2023-05-21T07:39:40.932Z,60.01
2023-05-21T07:42:07.716Z,60.43
2023-05-21T07:44:34.334Z,60.65
2023-05-21T07:47:01.153Z,60.11
2023-05-21T07:49:27.875Z,59.98
2023-05-21T07:51:54.563Z,60.23
2023-05-21T07:54:21.355Z,59.34
2023-05-21T07:56:48.119Z,59.76
2023-05-21T07:59:17.104Z,59.71
2023-05-21T08:01:44.276Z,59.66
2023-05-21T08:06:37.899Z,60.13
2023-05-21T08:09:06.252Z,59.90
2023-05-21T08:11:33.249Z,59.29
2023-05-21T08:14:00.368Z,59.13
2023-05-21T08:16:27.204Z,59.86
2023-05-21T08:18:54.027Z,60.06
2023-05-21T08:21:20.955Z,60.16
2023-05-21T08:23:47.653Z,59.97
2023-05-21T08:26:16.653Z,60.59
2023-05-21T08:28:43.552Z,60.07
2023-05-21T08:31:10.275Z,60.13
2023-05-21T08:33:38.545Z,59.29
2023-05-21T08:36:06.665Z,59.39
2023-05-21T08:38:34.175Z,59.47
2023-05-21T08:41:00.988Z,59.55
2023-05-21T08:43:28.710Z,59.13
2023-05-21T08:45:57.367Z,59.37
2023-05-21T08:48:24.685Z,58.51
2023-05-21T08:50:55.197Z,58.61
2023-05-21T08:53:28.230Z,58.17
2023-05-21T08:55:56.594Z,58.45
2023-05-21T08:58:23.652Z,57.84
2023-05-21T09:00:50.758Z,57.74
2023-05-21T09:03:18.037Z,57.06
2023-05-21T09:05:45.870Z,56.61
2023-05-21T09:08:24.396Z,56.51
2023-05-21T09:10:52.417Z,56.96
2023-05-21T09:13:20.588Z,56.70
2023-05-21T09:15:48.337Z,57.23
2023-05-21T09:18:15.246Z,56.96
2023-05-21T09:20:42.131Z,57.09
2023-05-21T09:23:17.362Z,57.36
2023-05-21T09:25:48.191Z,57.22
2023-05-21T09:28:16.274Z,57.08
2023-05-21T09:30:47.943Z,56.83
2023-05-21T09:33:29.494Z,56.58
2023-05-21T09:35:56.649Z,56.54
2023-05-21T09:38:24.962Z,56.69
2023-05-21T09:40:54.792Z,57.00
2023-05-21T09:43:21.733Z,57.26
2023-05-21T09:45:57.314Z,56.38
2023-05-21T09:48:35.363Z,56.71
2023-05-21T09:51:09.283Z,55.94
2023-05-21T09:53:36.013Z,56.03
2023-05-21T09:56:03.911Z,55.81
2023-05-21T09:58:30.612Z,55.62
2023-05-21T10:00:57.275Z,54.83
2023-05-21T10:03:28.512Z,55.00
2023-05-21T10:05:56.844Z,55.26
2023-05-21T10:08:26.853Z,55.71
2023-05-21T10:10:53.565Z,55.61
2023-05-21T10:13:23.456Z,54.92
2023-05-21T10:15:55.811Z,54.66
2023-05-21T10:18:24.556Z,54.35
2023-05-21T10:20:52.213Z,53.64
2023-05-21T10:23:19.166Z,53.05
2023-05-21T10:25:47.292Z,53.41
2023-05-21T10:28:17.434Z,53.29
2023-05-21T10:30:44.701Z,52.98
2023-05-21T10:33:16.398Z,53.08
2023-05-21T10:35:46.835Z,52.67
2023-05-21T10:38:14.506Z,52.93
2023-05-21T10:40:41.367Z,52.80
2023-05-21T10:43:23.289Z,52.37
2023-05-21T10:45:49.979Z,52.53
2023-05-21T10:48:33.725Z,52.28
2023-05-21T10:51:06.568Z,52.34
2023-05-21T10:54:01.217Z,52.29
2023-05-21T10:56:43.669Z,52.65
2023-05-21T10:59:22.387Z,53.02
2023-05-21T11:01:54.352Z,52.09
2023-05-21T11:04:27.472Z,52.34
2023-05-21T11:06:54.269Z,52.27
2023-05-21T11:09:20.931Z,51.54
2023-05-21T11:11:52.755Z,52.00
2023-05-21T11:14:27.228Z,51.90
2023-05-21T11:16:54.832Z,51.70
2023-05-21T11:19:21.569Z,52.41
2023-05-21T11:21:51.472Z,52.11
2023-05-21T11:24:21.895Z,52.68
2023-05-21T11:26:48.486Z,53.09
2023-05-21T11:29:15.195Z,53.13
2023-05-21T11:32:02.762Z,53.07
2023-05-21T11:34:59.579Z,53.20
2023-05-21T11:37:29.397Z,53.71
2023-05-21T11:39:58.153Z,53.39
2023-05-21T11:42:31.740Z,54.16
2023-05-21T11:44:59.473Z,54.25
2023-05-21T11:47:27.806Z,54.20
2023-05-21T11:49:55.816Z,54.50
2023-05-21T11:52:23.284Z,54.71
2023-05-21T11:54:58.005Z,54.42
2023-05-21T11:57:30.762Z,54.13
2023-05-21T12:00:01.505Z,53.84
2023-05-21T12:02:32.855Z,53.45
2023-05-21T12:05:00.553Z,54.25
2023-05-21T12:07:31.380Z,54.82
2023-05-21T12:09:58.583Z,54.81
2023-05-21T12:12:33.042Z,54.52
2023-05-21T12:15:07.118Z,54.19
2023-05-21T12:17:34.273Z,53.62
2023-05-21T12:20:02.172Z,54.10
2023-05-21T12:22:29.941Z,54.12
2023-05-21T12:24:58.332Z,54.35
2023-05-21T12:27:25.178Z,55.02
2023-05-21T12:29:53.258Z,54.87
2023-05-21T12:32:21.537Z,55.24
2023-05-21T12:34:49.756Z,55.25
2023-05-21T12:37:26.927Z,55.42
2023-05-21T12:40:01.285Z,54.88
2023-05-21T12:42:35.045Z,54.56
2023-05-21T12:45:08.863Z,54.64
2023-05-21T12:47:36.358Z,54.25
2023-05-21T12:50:11.851Z,54.38
2023-05-21T12:52:41.037Z,54.74
2023-05-21T12:55:10.650Z,54.43
2023-05-21T12:57:40.751Z,54.89
2023-05-21T13:00:09.289Z,55.52
2023-05-21T13:02:44.442Z,55.28
2023-05-21T13:05:20.158Z,55.06
2023-05-21T13:07:48.045Z,55.28
2023-05-21T13:10:18.449Z,55.44
2023-05-21T13:12:45.718Z,55.37
2023-05-21T13:15:12.624Z,55.62
2023-05-21T13:17:39.362Z,55.82
2023-05-21T13:20:09.550Z,55.86
2023-05-21T13:22:43.701Z,56.25
2023-05-21T13:25:11.795Z,55.91
2023-05-21T13:27:39.741Z,55.67
2023-05-21T13:30:07.405Z,55.72
2023-05-21T13:32:34.622Z,56.42
2023-05-21T13:35:01.470Z,56.50
2023-05-21T13:37:28.216Z,56.44
2023-05-21T13:39:55.092Z,56.92
2023-05-21T13:42:21.773Z,56.70
2023-05-21T13:44:49.293Z,57.13
2023-05-21T13:47:16.460Z,56.94
2023-05-21T13:49:43.109Z,57.27
2023-05-21T13:52:10.234Z,57.62
2023-05-21T13:54:37.092Z,57.62
2023-05-21T13:57:04.634Z,57.16
2023-05-21T13:59:33.341Z,57.36
2023-05-21T14:02:01.018Z,57.59
2023-05-21T14:04:28.002Z,57.23
2023-05-21T14:06:54.686Z,57.13
2023-05-21T14:09:23.460Z,57.20
2023-05-21T14:11:50.077Z,56.92
2023-05-21T14:14:19.144Z,57.02
2023-05-21T14:16:49.772Z,56.94
2023-05-21T14:19:16.980Z,56.56
2023-05-21T14:21:43.933Z,56.78
2023-05-21T14:24:10.851Z,56.75
2023-05-21T14:26:40.445Z,56.05
2023-05-21T14:29:07.258Z,56.76
2023-05-21T14:31:34.262Z,56.80
2023-05-21T14:34:02.939Z,57.19
2023-05-21T14:36:30.115Z,57.04
2023-05-21T14:38:57.177Z,57.18
2023-05-21T14:41:27.740Z,56.97
2023-05-21T14:43:54.934Z,57.05
2023-05-21T14:46:21.915Z,56.71
2023-05-21T14:48:48.687Z,56.30
2023-05-21T14:51:15.671Z,56.48
2023-05-21T14:53:42.518Z,56.45
2023-05-21T14:56:09.150Z,57.01
2023-05-21T14:58:35.838Z,56.89
2023-05-21T15:01:04.463Z,56.95
2023-05-21T15:03:31.380Z,56.93
2023-05-21T15:05:58.701Z,57.35
2023-05-21T15:08:26.023Z,57.05
2023-05-21T15:10:52.754Z,56.80
2023-05-21T15:13:19.496Z,56.04
2023-05-21T15:15:46.394Z,55.59
2023-05-21T15:18:13.164Z,55.59
2023-05-21T15:20:39.884Z,55.69
2023-05-21T15:23:16.694Z,55.32
2023-05-21T15:25:44.761Z,55.12
2023-05-21T15:28:12.391Z,55.04
2023-05-21T15:30:39.331Z,54.73
2023-05-21T15:33:06.570Z,54.55
2023-05-21T15:35:35.222Z,54.44
2023-05-21T15:38:02.004Z,55.02
2023-05-21T15:40:28.721Z,54.42
2023-05-21T15:42:55.550Z,54.10
2023-05-21T15:45:22.190Z,54.50
2023-05-21T15:47:48.839Z,54.66
2023-05-21T15:50:15.787Z,54.32
2023-05-21T15:52:42.797Z,54.26
2023-05-21T15:55:10.029Z,53.85
2023-05-21T15:57:36.993Z,54.13
2023-05-21T16:00:05.042Z,54.60
2023-05-21T16:02:32.068Z,54.75
2023-05-21T16:04:58.950Z,54.58
2023-05-21T16:07:25.868Z,55.26
2023-05-21T16:09:52.542Z,55.06
2023-05-21T16:12:19.572Z,55.09
2023-05-21T16:14:49.948Z,55.12
2023-05-21T16:17:16.834Z,55.19
2023-05-21T16:19:43.768Z,55.26
2023-05-21T16:22:11.045Z,54.86
2023-05-21T16:24:37.923Z,55.18
2023-05-21T16:27:05.159Z,55.07
2023-05-21T16:29:31.989Z,54.66
2023-05-21T16:31:58.719Z,54.62
2023-05-21T16:34:25.796Z,54.58
2023-05-21T16:36:52.533Z,54.84
2023-05-21T16:39:19.398Z,54.47
2023-05-21T16:41:46.290Z,54.17
2023-05-21T16:44:13.053Z,54.47
2023-05-21T16:46:39.972Z,54.44
2023-05-21T16:49:07.263Z,54.62
2023-05-21T16:51:34.265Z,54.52
2023-05-21T16:54:02.405Z,54.75
2023-05-21T16:56:29.241Z,54.89
2023-05-21T16:58:55.932Z,54.86
2023-05-21T17:01:22.892Z,55.05
2023-05-21T17:03:49.962Z,55.29
2023-05-21T17:06:16.916Z,55.37
2023-05-21T17:08:43.559Z,55.36
2023-05-21T17:11:10.311Z,55.57
2023-05-21T17:13:37.044Z,55.39
2023-05-21T17:16:03.832Z,55.25
2023-05-21T17:18:31.397Z,55.35
2023-05-21T17:20:59.104Z,55.50
2023-05-21T17:23:25.822Z,55.81
2023-05-21T17:25:52.792Z,56.13
2023-05-21T17:28:19.576Z,56.00
2023-05-21T17:30:48.708Z,56.28
2023-05-21T17:33:16.483Z,56.29
2023-05-21T17:35:43.319Z,56.31
2023-05-21T17:38:10.454Z,56.27
2023-05-21T17:40:37.380Z,56.42
2023-05-21T17:43:05.180Z,56.60
2023-05-21T17:45:31.974Z,56.94
2023-05-21T17:48:00.552Z,57.32
2023-05-21T17:50:27.951Z,57.34
2023-05-21T17:52:54.762Z,57.30
2023-05-21T17:55:23.631Z,57.50
2023-05-21T17:57:50.351Z,57.89
2023-05-21T18:00:17.296Z,58.39
2023-05-21T18:02:44.045Z,58.41
2023-05-21T18:05:10.811Z,58.84
2023-05-21T18:07:38.420Z,59.18
2023-05-21T18:10:05.908Z,59.49
2023-05-21T18:12:32.664Z,59.64
2023-05-21T18:14:59.413Z,59.73
2023-05-21T18:17:26.325Z,60.25
2023-05-21T18:19:53.065Z,60.22
2023-05-21T18:22:19.735Z,60.08
2023-05-21T18:24:46.689Z,60.65
2023-05-21T18:27:13.641Z,60.75
2023-05-21T18:29:40.392Z,60.81
2023-05-21T18:32:07.900Z,60.56
2023-05-21T18:34:34.816Z,60.36
2023-05-21T18:37:01.564Z,61.04
2023-05-21T18:39:28.485Z,61.21
2023-05-21T18:42:08.868Z,61.22
2023-05-21T18:44:40.001Z,61.34
2023-05-21T18:47:07.814Z,61.58
2023-05-21T18:49:36.116Z,61.78
2023-05-21T18:52:04.037Z,61.87
2023-05-21T18:54:31.071Z,62.32
2023-05-21T18:57:00.298Z,62.15
2023-05-21T18:59:29.022Z,62.54
2023-05-21T19:01:56.023Z,62.65
2023-05-21T19:04:22.891Z,62.88
2023-05-21T19:06:49.922Z,62.86
2023-05-21T19:09:17.023Z,63.26
2023-05-21T19:11:43.980Z,63.39
2023-05-21T19:14:10.795Z,63.30
2023-05-21T19:16:37.508Z,63.65
2023-05-21T19:19:04.373Z,63.34
2023-05-21T19:21:31.709Z,64.04
2023-05-21T19:23:58.926Z,63.99
2023-05-21T19:26:25.673Z,64.10
2023-05-21T19:28:55.717Z,64.58
2023-05-21T19:31:23.048Z,64.75
2023-05-21T19:33:50.147Z,64.77
2023-05-21T19:36:17.432Z,64.79
2023-05-21T19:38:51.338Z,65.06
2023-05-21T19:41:19.197Z,65.16
2023-05-21T19:43:46.240Z,65.05
2023-05-21T19:46:14.283Z,65.00
2023-05-21T19:48:42.149Z,65.25
2023-05-21T19:51:08.944Z,65.33
2023-05-21T19:53:36.002Z,65.39
2023-05-21T19:56:03.057Z,65.46
2023-05-21T19:58:30.468Z,65.79
2023-05-21T20:01:00.158Z,65.68
2023-05-21T20:03:28.506Z,65.93
2023-05-21T20:05:55.170Z,65.84
2023-05-21T20:08:22.255Z,65.67
2023-05-21T20:10:51.720Z,66.09
2023-05-21T20:13:19.047Z,66.00
2023-05-21T20:15:45.720Z,66.17
2023-05-21T20:18:13.168Z,66.47
2023-05-21T20:20:41.290Z,66.39
2023-05-21T20:23:08.949Z,66.87
2023-05-21T20:25:35.894Z,66.63
2023-05-21T20:28:03.641Z,67.13
2023-05-21T20:30:34.933Z,67.08
2023-05-21T20:33:03.234Z,67.10
2023-05-21T20:35:30.473Z,67.41
2023-05-21T20:37:57.137Z,67.61
2023-05-21T20:40:24.568Z,67.45
2023-05-21T20:42:53.348Z,67.63
2023-05-21T20:45:21.029Z,67.68
2023-05-21T20:47:48.303Z,67.98
2023-05-21T20:50:17.712Z,68.04
2023-05-21T20:52:47.053Z,68.14
2023-05-21T20:55:14.928Z,68.42
2023-05-21T20:57:42.126Z,68.30
2023-05-21T21:00:11.831Z,68.57
2023-05-21T21:02:38.977Z,68.62
2023-05-21T21:05:06.210Z,68.87
2023-05-21T21:07:34.245Z,69.10
2023-05-21T21:10:01.599Z,69.13
2023-05-21T21:12:28.461Z,69.03
2023-05-21T21:14:55.830Z,69.44
2023-05-21T21:17:23.068Z,69.17
2023-05-21T21:19:49.805Z,69.67
2023-05-21T21:22:17.204Z,69.46
2023-05-21T21:24:44.682Z,69.77
2023-05-21T21:27:11.330Z,69.49
2023-05-21T21:29:38.352Z,69.86
2023-05-21T21:32:05.769Z,69.72
2023-05-21T21:34:32.510Z,69.71
2023-05-21T21:36:59.145Z,70.04
2023-05-21T21:39:26.999Z,70.40
2023-05-21T21:41:53.759Z,70.20
2023-05-21T21:44:20.650Z,70.20
2023-05-21T21:46:47.579Z,70.38
2023-05-21T21:49:17.195Z,70.38
2023-05-21T21:51:44.725Z,70.46
2023-05-21T21:54:11.910Z,70.16
2023-05-21T21:56:38.748Z,70.43
2023-05-21T21:59:05.736Z,71.02
2023-05-21T22:01:32.887Z,70.68
2023-05-21T22:03:59.719Z,70.72
2023-05-21T22:06:27.669Z,70.89
2023-05-21T22:08:55.137Z,71.06
2023-05-21T22:11:21.999Z,71.38
2023-05-21T22:13:48.935Z,71.50
2023-05-21T22:16:16.183Z,71.43
2023-05-21T22:18:42.915Z,71.54
2023-05-21T22:21:10.718Z,71.14
2023-05-21T22:23:38.582Z,71.30
2023-05-21T22:26:07.361Z,71.64
2023-05-21T22:28:34.125Z,71.54
2023-05-21T22:31:01.536Z,71.68
2023-05-21T22:33:29.366Z,71.65
2023-05-21T22:35:57.070Z,71.84
2023-05-21T22:38:24.453Z,72.01
2023-05-21T22:40:51.509Z,72.04
2023-05-21T22:43:18.280Z,72.29
2023-05-21T22:45:45.199Z,72.33
2023-05-21T22:48:11.885Z,72.28
2023-05-21T22:50:39.048Z,72.56
2023-05-21T22:53:07.002Z,72.47
2023-05-21T22:55:33.678Z,72.39
2023-05-21T22:58:00.317Z,73.17
2023-05-21T23:00:27.582Z,72.86
2023-05-21T23:02:54.717Z,73.25
2023-05-21T23:05:22.206Z,73.32
2023-05-21T23:07:49.215Z,73.42
2023-05-21T23:10:15.920Z,73.71
2023-05-21T23:12:42.623Z,73.65
2023-05-21T23:15:09.972Z,73.86
2023-05-21T23:17:37.252Z,73.73
2023-05-21T23:20:04.711Z,73.90
2023-05-21T23:22:31.750Z,74.36
2023-05-21T23:24:58.478Z,74.37
2023-05-21T23:27:25.144Z,74.36
2023-05-21T23:29:51.955Z,74.54
2023-05-21T23:32:18.678Z,74.11
2023-05-21T23:34:45.285Z,74.20
2023-05-21T23:37:12.427Z,74.76
2023-05-21T23:39:39.082Z,74.63
2023-05-21T23:42:06.302Z,74.18
2023-05-21T23:44:33.272Z,74.72
2023-05-21T23:46:59.976Z,74.58
2023-05-21T23:49:26.600Z,74.49
2023-05-21T23:51:53.533Z,74.19
2023-05-21T23:54:20.206Z,74.52
2023-05-21T23:56:46.959Z,74.51
2023-05-21T23:59:15.653Z,74.44
